Time;durP1;ratioP1;P1;durP2;ratioP2;P2;SDS_P1;SDS_P2;PMS_P1;PMS_P2;Temp;Humidity;BMP_temperature;BMP_pressure;BME280_temperature;BME280_humidity;BME280_pressure;Samples;Min_cycle;Max_cycle;Signal;HPM_P1;HPM_P2
2022/11/26 00:00:51;;;;;;;;;;;5.90;99.90;;;;;;5094210;28;20066;-71
2022/11/26 00:03:17;;;;;;;;;;;5.90;99.90;;;;;;5094185;28;20359;-69
2022/11/26 00:05:43;;;;;;;;;;;6.10;99.90;;;;;;5093331;28;19924;-72
2022/11/26 00:08:14;;;;;;;;;;;5.80;99.90;;;;;;5109881;28;20372;-69
2022/11/26 00:10:39;;;;;;;;;;;5.90;99.90;;;;;;5094158;28;19934;-70
2022/11/26 00:13:09;;;;;;;;;;;5.80;99.90;;;;;;5091603;28;19924;-69
2022/11/26 00:15:34;;;;;;;;;;;5.80;99.90;;;;;;5127958;27;19924;-70
2022/11/26 00:18:00;;;;;;;;;;;5.80;99.90;;;;;;5127042;27;19932;-74
2022/11/26 00:20:30;;;;;;;;;;;5.80;99.90;;;;;;5093559;28;19977;-72
2022/11/26 00:23:03;;;;;;;;;;;5.80;99.90;;;;;;5127184;27;19924;-70
2022/11/26 00:25:45;;;;;;;;;;;5.80;99.90;;;;;;5093570;28;19928;-69
2022/11/26 00:28:20;;;;;;;;;;;5.70;99.90;;;;;;5127279;27;19949;-69
2022/11/26 00:30:46;;;;;;;;;;;5.70;99.90;;;;;;5076605;28;20016;-73
2022/11/26 00:33:11;;;;;;;;;;;5.80;99.90;;;;;;5092818;28;20015;-69
2022/11/26 00:35:37;;;;;;;;;;;5.80;99.90;;;;;;5094294;28;19931;-69
2022/11/26 00:38:02;;;;;;;;;;;5.70;99.90;;;;;;5094016;28;19978;-68
2022/11/26 00:40:31;;;;;;;;;;;5.70;99.90;;;;;;5110176;28;20262;-69
2022/11/26 00:42:56;;;;;;;;;;;6.10;99.90;;;;;;5127115;27;20004;-69
2022/11/26 00:45:26;;;;;;;;;;;5.70;99.90;;;;;;5127138;27;20291;-69
2022/11/26 00:47:52;;;;;;;;;;;5.70;99.90;;;;;;5126618;27;19924;-78
2022/11/26 00:50:19;;;;;;;;;;;5.60;99.90;;;;;;5092584;28;19924;-69
2022/11/26 00:52:45;;;;;;;;;;;5.70;99.90;;;;;;5093874;28;19924;-69
2022/11/26 00:55:18;;;;;;;;;;;5.60;99.90;;;;;;5093573;28;19924;-70
2022/11/26 00:57:43;;;;;;;;;;;5.60;99.90;;;;;;5126834;27;19946;-72
2022/11/26 01:00:13;;;;;;;;;;;5.60;99.90;;;;;;5092626;28;19927;-70
2022/11/26 01:02:38;;;;;;;;;;;5.60;99.90;;;;;;5093844;28;19924;-69
2022/11/26 01:05:04;;;;;;;;;;;5.80;99.90;;;;;;5092173;28;19932;-69
2022/11/26 01:07:30;;;;;;;;;;;5.60;99.90;;;;;;5092432;28;20003;-74
2022/11/26 01:09:55;;;;;;;;;;;5.60;99.90;;;;;;5093619;28;19924;-78
2022/11/26 01:12:21;;;;;;;;;;;5.60;99.90;;;;;;5075200;28;19924;-69
2022/11/26 01:14:46;;;;;;;;;;;5.50;99.90;;;;;;5109551;28;20416;-74
2022/11/26 01:17:12;;;;;;;;;;;5.50;99.90;;;;;;5108830;28;20274;-69
2022/11/26 01:19:37;;;;;;;;;;;5.50;99.90;;;;;;5093496;28;19924;-69
2022/11/26 01:22:03;;;;;;;;;;;5.80;99.90;;;;;;5125898;27;19969;-69
2022/11/26 01:24:29;;;;;;;;;;;5.50;99.90;;;;;;5125864;27;19936;-69
2022/11/26 01:26:54;;;;;;;;;;;5.50;99.90;;;;;;5092207;28;19931;-70
2022/11/26 01:29:20;;;;;;;;;;;5.40;99.90;;;;;;5075087;28;19924;-70
2022/11/26 01:31:46;;;;;;;;;;;5.50;99.90;;;;;;5093311;28;20384;-71
2022/11/26 01:34:11;;;;;;;;;;;5.40;99.90;;;;;;5092808;28;19924;-69
2022/11/26 01:36:38;;;;;;;;;;;5.40;99.90;;;;;;5092267;28;19990;-70
2022/11/26 01:39:24;;;;;;;;;;;5.40;99.90;;;;;;5091628;28;19924;-69
2022/11/26 01:41:53;;;;;;;;;;;5.40;99.90;;;;;;5108668;28;19924;-69
2022/11/26 01:44:23;;;;;;;;;;;5.40;99.90;;;;;;5108732;28;19924;-69
2022/11/26 01:46:49;;;;;;;;;;;5.40;99.90;;;;;;5091614;28;19924;-70
2022/11/26 01:49:16;;;;;;;;;;;5.30;99.90;;;;;;5092621;28;19928;-69
2022/11/26 01:51:42;;;;;;;;;;;5.40;99.90;;;;;;5126025;27;19950;-73
2022/11/26 01:54:09;;;;;;;;;;;5.30;99.90;;;;;;5091506;28;19932;-69
2022/11/26 01:56:36;;;;;;;;;;;5.30;99.90;;;;;;5075027;28;19924;-69
2022/11/26 01:59:02;;;;;;;;;;;5.30;99.90;;;;;;5091526;28;20335;-78
2022/11/26 02:01:28;;;;;;;;;;;5.30;99.90;;;;;;5091576;28;19930;-69
2022/11/26 02:03:56;;;;;;;;;;;5.30;99.90;;;;;;5108698;28;19924;-76
2022/11/26 02:06:25;;;;;;;;;;;5.30;99.90;;;;;;5091428;28;19946;-69
2022/11/26 02:08:51;;;;;;;;;;;5.30;99.90;;;;;;5092555;28;20368;-70
2022/11/26 02:11:18;;;;;;;;;;;5.30;99.90;;;;;;5124422;27;20039;-70
2022/11/26 02:13:45;;;;;;;;;;;5.30;99.90;;;;;;5074461;28;20297;-70
2022/11/26 02:16:16;;;;;;;;;;;5.30;99.90;;;;;;5090784;28;19931;-69
2022/11/26 02:18:45;;;;;;;;;;;5.30;99.90;;;;;;5124998;27;19946;-69
2022/11/26 02:21:14;;;;;;;;;;;5.30;99.90;;;;;;5090849;28;19924;-78
2022/11/26 02:24:00;;;;;;;;;;;5.30;99.90;;;;;;5092251;28;19928;-70
2022/11/26 02:26:28;;;;;;;;;;;5.20;99.90;;;;;;5091190;28;19975;-70
2022/11/26 02:29:12;;;;;;;;;;;5.30;99.90;;;;;;5091720;28;19931;-71
2022/11/26 02:31:38;;;;;;;;;;;5.30;99.90;;;;;;5090904;28;20431;-71
2022/11/26 02:34:10;;;;;;;;;;;5.30;99.90;;;;;;5090949;28;19976;-70
2022/11/26 02:37:05;;;;;;;;;;;5.30;99.90;;;;;;5073656;28;19928;-70
2022/11/26 02:39:31;;;;;;;;;;;5.20;99.90;;;;;;5094324;28;19924;-70
2022/11/26 02:41:57;;;;;;;;;;;5.60;99.90;;;;;;5124687;27;20003;-69
2022/11/26 02:44:25;;;;;;;;;;;5.20;99.90;;;;;;5091883;28;20349;-70
2022/11/26 02:46:59;;;;;;;;;;;5.20;99.90;;;;;;5124554;27;20382;-70
2022/11/26 02:49:26;;;;;;;;;;;5.20;99.90;;;;;;5090971;28;20091;-70
2022/11/26 02:51:53;;;;;;;;;;;5.20;99.90;;;;;;5091939;28;19967;-69
2022/11/26 02:54:20;;;;;;;;;;;5.20;99.90;;;;;;5090616;28;19935;-69
2022/11/26 02:56:46;;;;;;;;;;;5.30;99.90;;;;;;5090814;28;19931;-74
2022/11/26 02:59:13;;;;;;;;;;;5.40;99.90;;;;;;5090591;28;19924;-77
2022/11/26 03:01:42;;;;;;;;;;;5.20;99.90;;;;;;5090576;28;19950;-70
2022/11/26 03:04:10;;;;;;;;;;;5.20;99.90;;;;;;5091752;28;19924;-72
2022/11/26 03:06:37;;;;;;;;;;;5.30;99.90;;;;;;5091671;28;19928;-72
2022/11/26 03:09:03;;;;;;;;;;;5.20;99.90;;;;;;5091891;28;19924;-70
2022/11/26 03:11:28;;;;;;;;;;;5.20;99.90;;;;;;5107285;28;19935;-70
2022/11/26 03:13:54;;;;;;;;;;;5.20;99.90;;;;;;5090806;28;19931;-70
2022/11/26 03:16:19;;;;;;;;;;;5.20;99.90;;;;;;5091494;28;19924;-70
2022/11/26 03:18:45;;;;;;;;;;;5.20;99.90;;;;;;5090792;28;19931;-70
2022/11/26 03:21:10;;;;;;;;;;;5.20;99.90;;;;;;5107815;28;19924;-69
2022/11/26 03:23:36;;;;;;;;;;;5.20;99.90;;;;;;5124223;28;19928;-70
2022/11/26 03:26:02;;;;;;;;;;;5.20;99.90;;;;;;5091640;28;20372;-70
2022/11/26 03:28:27;;;;;;;;;;;5.20;99.90;;;;;;5091277;28;19924;-68
2022/11/26 03:30:53;;;;;;;;;;;5.20;99.90;;;;;;5091483;28;20023;-69
2022/11/26 03:33:18;;;;;;;;;;;5.10;99.90;;;;;;5073106;28;19931;-72
2022/11/26 03:35:46;;;;;;;;;;;5.20;99.90;;;;;;5124558;28;19924;-69
2022/11/26 03:38:11;;;;;;;;;;;5.20;99.90;;;;;;5091337;28;19974;-69
2022/11/26 03:40:37;;;;;;;;;;;5.10;99.90;;;;;;5124146;28;19920;-71
2022/11/26 03:43:02;;;;;;;;;;;5.10;99.90;;;;;;5124190;28;20574;-71
2022/11/26 03:45:28;;;;;;;;;;;5.10;99.90;;;;;;5090918;28;19931;-70
2022/11/26 03:47:53;;;;;;;;;;;5.10;99.90;;;;;;5092510;28;19973;-70
2022/11/26 03:50:19;;;;;;;;;;;5.00;99.90;;;;;;5127762;27;19935;-80
2022/11/26 03:52:44;;;;;;;;;;;5.10;99.90;;;;;;5093836;28;19931;-70
2022/11/26 03:55:10;;;;;;;;;;;5.40;99.90;;;;;;5127997;27;20333;-70
2022/11/26 03:57:36;;;;;;;;;;;5.10;99.90;;;;;;5093453;28;20327;-69
2022/11/26 04:00:02;;;;;;;;;;;5.10;99.90;;;;;;5094012;28;19924;-71
2022/11/26 04:02:28;;;;;;;;;;;5.10;99.90;;;;;;5127372;27;19924;-74
2022/11/26 04:04:53;;;;;;;;;;;5.10;99.90;;;;;;5076408;28;19935;-69
2022/11/26 04:07:19;;;;;;;;;;;5.10;99.90;;;;;;5110724;28;19979;-69
2022/11/26 04:09:44;;;;;;;;;;;5.00;99.90;;;;;;5094529;28;19930;-71
2022/11/26 04:12:10;;;;;;;;;;;5.10;99.90;;;;;;5110468;28;19931;-74
2022/11/26 04:14:35;;;;;;;;;;;5.10;99.90;;;;;;5094714;28;19924;-70
2022/11/26 04:17:01;;;;;;;;;;;5.10;99.90;;;;;;5093571;28;20293;-71
2022/11/26 04:19:26;;;;;;;;;;;5.30;99.90;;;;;;5093376;28;19924;-70
2022/11/26 04:21:52;;;;;;;;;;;5.10;99.90;;;;;;5094698;28;19924;-70
2022/11/26 04:24:18;;;;;;;;;;;5.00;99.90;;;;;;5094690;28;19924;-70
2022/11/26 04:26:43;;;;;;;;;;;5.00;99.90;;;;;;5094478;28;19926;-69
2022/11/26 04:29:09;;;;;;;;;;;5.10;99.90;;;;;;5094510;28;19928;-69
2022/11/26 04:31:34;;;;;;;;;;;5.00;99.90;;;;;;5109796;28;20290;-71
2022/11/26 04:34:00;;;;;;;;;;;5.00;99.90;;;;;;5110120;28;19993;-70
2022/11/26 04:36:26;;;;;;;;;;;5.00;99.90;;;;;;5092777;28;19940;-80
2022/11/26 04:38:51;;;;;;;;;;;5.00;99.90;;;;;;5110359;28;19978;-70
2022/11/26 04:41:17;;;;;;;;;;;5.00;99.90;;;;;;5093481;28;19964;-70
2022/11/26 04:43:43;;;;;;;;;;;5.00;99.90;;;;;;5075671;28;19960;-70
2022/11/26 04:46:08;;;;;;;;;;;5.10;99.90;;;;;;5094366;28;20022;-72
2022/11/26 04:48:34;;;;;;;;;;;5.00;99.90;;;;;;5093643;28;19924;-69
2022/11/26 04:51:00;;;;;;;;;;;5.00;99.90;;;;;;5110182;28;20422;-74
2022/11/26 04:53:25;;;;;;;;;;;5.10;99.90;;;;;;5093327;28;19982;-72
2022/11/26 04:55:51;;;;;;;;;;;5.00;99.90;;;;;;5058887;28;20367;-70
2022/11/26 04:58:17;;;;;;;;;;;5.00;99.90;;;;;;5092149;28;19928;-70
2022/11/26 05:00:43;;;;;;;;;;;5.00;99.90;;;;;;5075896;28;19926;-70
2022/11/26 05:03:09;;;;;;;;;;;5.00;99.90;;;;;;5109598;28;19962;-70
2022/11/26 05:05:34;;;;;;;;;;;5.00;99.90;;;;;;5093476;28;19973;-69
2022/11/26 05:08:00;;;;;;;;;;;5.00;99.90;;;;;;5094293;28;20289;-70
2022/11/26 05:10:25;;;;;;;;;;;5.00;99.90;;;;;;5075587;28;19925;-70
2022/11/26 05:12:51;;;;;;;;;;;4.90;99.90;;;;;;5126318;27;20343;-72
2022/11/26 05:15:16;;;;;;;;;;;4.90;99.90;;;;;;5093880;28;19924;-70
2022/11/26 05:17:42;;;;;;;;;;;5.00;99.90;;;;;;5091993;28;19936;-70
2022/11/26 05:20:08;;;;;;;;;;;5.00;99.90;;;;;;5091869;28;19932;-69
2022/11/26 05:22:33;;;;;;;;;;;5.00;99.90;;;;;;5126222;27;19997;-69
2022/11/26 05:24:59;;;;;;;;;;;5.00;99.90;;;;;;5075361;28;19935;-69
2022/11/26 05:27:25;;;;;;;;;;;4.90;99.90;;;;;;5093144;28;20331;-72
2022/11/26 05:29:50;;;;;;;;;;;5.00;99.90;;;;;;5092786;28;19924;-69
2022/11/26 05:32:16;;;;;;;;;;;4.90;99.90;;;;;;5093199;28;19967;-70
2022/11/26 05:34:41;;;;;;;;;;;5.00;99.90;;;;;;5092754;28;19931;-69
2022/11/26 05:37:07;;;;;;;;;;;4.90;99.90;;;;;;5092045;28;20277;-70
2022/11/26 05:39:33;;;;;;;;;;;4.90;99.90;;;;;;5092214;28;20011;-69
2022/11/26 05:41:58;;;;;;;;;;;5.00;99.90;;;;;;5091424;28;19934;-69
2022/11/26 05:44:24;;;;;;;;;;;4.90;99.90;;;;;;5092192;28;19931;-74
2022/11/26 05:46:49;;;;;;;;;;;5.00;99.90;;;;;;5092068;28;19924;-69
2022/11/26 05:49:15;;;;;;;;;;;5.00;99.90;;;;;;5091743;28;20015;-69
2022/11/26 05:51:41;;;;;;;;;;;5.00;99.90;;;;;;5092353;28;19924;-68
2022/11/26 05:54:06;;;;;;;;;;;5.00;99.90;;;;;;5074897;28;20438;-69
2022/11/26 05:56:32;;;;;;;;;;;5.00;99.90;;;;;;5091901;28;20371;-68
2022/11/26 05:58:57;;;;;;;;;;;5.00;99.90;;;;;;5091407;28;19974;-70
2022/11/26 06:01:23;;;;;;;;;;;5.00;99.90;;;;;;5092761;28;19924;-71
2022/11/26 06:03:49;;;;;;;;;;;5.00;99.90;;;;;;5073867;28;20080;-71
2022/11/26 06:06:14;;;;;;;;;;;5.00;99.90;;;;;;5091668;28;20422;-69
2022/11/26 06:08:40;;;;;;;;;;;5.10;99.90;;;;;;5090969;28;19924;-78
2022/11/26 06:11:05;;;;;;;;;;;5.00;99.90;;;;;;5125157;27;20261;-70
2022/11/26 06:13:31;;;;;;;;;;;5.00;99.90;;;;;;5091124;28;20026;-70
2022/11/26 06:15:56;;;;;;;;;;;5.00;99.90;;;;;;5125189;27;19969;-70
2022/11/26 06:18:22;;;;;;;;;;;5.00;99.90;;;;;;5092497;28;19935;-72
2022/11/26 06:20:47;;;;;;;;;;;5.00;99.90;;;;;;5125077;27;19925;-71
2022/11/26 06:23:13;;;;;;;;;;;5.00;99.90;;;;;;5091417;28;19924;-71
2022/11/26 06:25:39;;;;;;;;;;;5.00;99.90;;;;;;5092325;28;19928;-69
2022/11/26 06:28:05;;;;;;;;;;;5.00;99.90;;;;;;5090406;28;20381;-69
2022/11/26 06:30:30;;;;;;;;;;;5.00;99.90;;;;;;5074329;28;19931;-69
2022/11/26 06:32:56;;;;;;;;;;;5.00;99.90;;;;;;5090622;28;19924;-72
2022/11/26 06:35:22;;;;;;;;;;;4.90;99.90;;;;;;5091167;28;20393;-70
2022/11/26 06:37:50;;;;;;;;;;;4.90;99.90;;;;;;5123745;27;19924;-69
2022/11/26 06:40:17;;;;;;;;;;;5.00;99.90;;;;;;5092112;28;19924;-69
2022/11/26 06:42:46;;;;;;;;;;;4.90;99.90;;;;;;5091029;28;19924;-78
2022/11/26 06:45:12;;;;;;;;;;;4.90;99.90;;;;;;5091745;28;19928;-70
2022/11/26 06:47:37;;;;;;;;;;;4.90;99.90;;;;;;5124365;27;19924;-69
2022/11/26 06:50:03;;;;;;;;;;;4.90;99.90;;;;;;5091626;28;19924;-69
2022/11/26 06:52:29;;;;;;;;;;;4.90;99.90;;;;;;5091935;28;20335;-71
2022/11/26 06:54:54;;;;;;;;;;;4.90;99.90;;;;;;5090623;28;20289;-70
2022/11/26 06:57:20;;;;;;;;;;;4.90;99.90;;;;;;5092082;28;19924;-71
2022/11/26 06:59:45;;;;;;;;;;;4.90;99.90;;;;;;5124544;28;20014;-80
2022/11/26 07:02:11;;;;;;;;;;;4.90;99.90;;;;;;5090302;28;20392;-70
2022/11/26 07:04:36;;;;;;;;;;;4.90;99.90;;;;;;5124456;28;19931;-69
2022/11/26 07:07:02;;;;;;;;;;;4.90;99.90;;;;;;5124529;28;20331;-71
2022/11/26 07:09:28;;;;;;;;;;;4.90;99.90;;;;;;5091846;28;19985;-69
2022/11/26 07:11:53;;;;;;;;;;;4.90;99.90;;;;;;5089821;28;20410;-69
2022/11/26 07:14:21;;;;;;;;;;;4.90;99.90;;;;;;5090762;28;19967;-70
2022/11/26 07:16:47;;;;;;;;;;;4.90;99.90;;;;;;5107421;28;19924;-69
2022/11/26 07:19:13;;;;;;;;;;;4.90;99.90;;;;;;5090159;28;20282;-70
2022/11/26 07:21:38;;;;;;;;;;;4.90;99.90;;;;;;5092263;28;20363;-69
2022/11/26 07:24:04;;;;;;;;;;;5.00;99.90;;;;;;5094442;28;19924;-69
2022/11/26 07:26:30;;;;;;;;;;;5.00;99.90;;;;;;5077508;28;19979;-69
2022/11/26 07:28:55;;;;;;;;;;;5.00;99.90;;;;;;5095509;28;19972;-69
2022/11/26 07:31:21;;;;;;;;;;;5.00;99.90;;;;;;5095417;28;20366;-70
2022/11/26 07:33:48;;;;;;;;;;;5.00;99.90;;;;;;5128509;27;19924;-69
2022/11/26 07:36:15;;;;;;;;;;;5.00;99.90;;;;;;5128055;27;19975;-68
2022/11/26 07:38:40;;;;;;;;;;;5.00;99.90;;;;;;5095228;28;19981;-69
2022/11/26 07:41:08;;;;;;;;;;;5.00;99.90;;;;;;5095018;28;20373;-69
2022/11/26 07:43:35;;;;;;;;;;;5.00;99.90;;;;;;5095315;28;19924;-69
2022/11/26 07:46:03;;;;;;;;;;;5.10;99.90;;;;;;5095006;28;19957;-70
2022/11/26 07:48:29;;;;;;;;;;;5.10;99.90;;;;;;5127925;27;20011;-69
2022/11/26 07:50:55;;;;;;;;;;;5.20;99.90;;;;;;5094626;28;19931;-71
2022/11/26 07:53:21;;;;;;;;;;;5.20;99.90;;;;;;5111035;28;19924;-69
2022/11/26 07:55:46;;;;;;;;;;;5.20;99.90;;;;;;5095195;28;19936;-69
2022/11/26 07:58:12;;;;;;;;;;;5.20;99.90;;;;;;5094548;28;20018;-69
2022/11/26 08:00:37;;;;;;;;;;;5.20;99.90;;;;;;5094637;28;20011;-69
2022/11/26 08:03:03;;;;;;;;;;;5.40;99.90;;;;;;5093140;28;19931;-72
2022/11/26 08:05:28;;;;;;;;;;;5.30;99.90;;;;;;5094703;28;20054;-69
2022/11/26 08:07:54;;;;;;;;;;;5.30;99.90;;;;;;5127633;27;19924;-77
2022/11/26 08:10:19;;;;;;;;;;;5.30;99.90;;;;;;5127507;27;20068;-69
2022/11/26 08:12:45;;;;;;;;;;;5.30;99.90;;;;;;5094715;28;19931;-68
2022/11/26 08:15:11;;;;;;;;;;;5.40;99.90;;;;;;5076609;28;19931;-71
2022/11/26 08:17:36;;;;;;;;;;;5.40;99.90;;;;;;5094670;28;20332;-69
2022/11/26 08:20:02;;;;;;;;;;;5.40;99.90;;;;;;5094193;28;19924;-70
2022/11/26 08:22:28;;;;;;;;;;;5.50;99.90;;;;;;5094509;28;19924;-70
2022/11/26 08:24:54;;;;;;;;;;;5.50;99.90;;;;;;5093345;28;20014;-68
2022/11/26 08:27:19;;;;;;;;;;;5.60;99.90;;;;;;5092988;28;19970;-68
2022/11/26 08:29:45;;;;;;;;;;;5.60;99.90;;;;;;5094831;28;19924;-68
2022/11/26 08:32:11;;;;;;;;;;;5.60;99.90;;;;;;5092793;28;19924;-68
2022/11/26 08:34:36;;;;;;;;;;;5.60;99.90;;;;;;5109195;28;19924;-75
2022/11/26 08:37:02;;;;;;;;;;;5.70;99.90;;;;;;5109999;28;20273;-69
2022/11/26 08:39:27;;;;;;;;;;;5.60;99.90;;;;;;5127482;27;20014;-75
2022/11/26 08:41:53;;;;;;;;;;;5.60;99.90;;;;;;5094405;28;20325;-68
2022/11/26 08:44:19;;;;;;;;;;;5.70;99.90;;;;;;5092623;28;20521;-69
2022/11/26 08:46:44;;;;;;;;;;;5.70;99.90;;;;;;5092909;28;19932;-68
2022/11/26 08:49:11;;;;;;;;;;;5.70;99.90;;;;;;5092753;28;19924;-72
2022/11/26 08:51:36;;;;;;;;;;;5.80;99.90;;;;;;5092579;28;19931;-69
2022/11/26 08:54:02;;;;;;;;;;;5.80;99.90;;;;;;5092777;28;19925;-80
2022/11/26 08:56:28;;;;;;;;;;;5.80;99.90;;;;;;5092463;28;19924;-71
2022/11/26 08:58:54;;;;;;;;;;;6.00;99.90;;;;;;5126844;27;20391;-71
2022/11/26 09:01:21;;;;;;;;;;;6.00;99.90;;;;;;5092876;28;20381;-69
2022/11/26 09:03:47;;;;;;;;;;;6.00;99.90;;;;;;5093610;28;19973;-70
2022/11/26 09:06:13;;;;;;;;;;;6.00;99.90;;;;;;5092762;28;20399;-70
2022/11/26 09:11:26;;;;;;;;;;;6.00;99.90;;;;;;5093179;28;19924;-67
2022/11/26 09:13:52;;;;;;;;;;;6.10;99.90;;;;;;5093447;28;20014;-69
2022/11/26 09:16:18;;;;;;;;;;;6.20;99.90;;;;;;5092351;28;19931;-70
2022/11/26 09:18:43;;;;;;;;;;;6.20;99.90;;;;;;5092596;28;19924;-69
2022/11/26 09:21:09;;;;;;;;;;;6.30;99.90;;;;;;5093343;28;19931;-69
2022/11/26 09:23:35;;;;;;;;;;;6.30;99.90;;;;;;5093352;28;20325;-70
2022/11/26 09:26:00;;;;;;;;;;;6.40;99.90;;;;;;5075548;28;19924;-69
2022/11/26 09:28:26;;;;;;;;;;;6.40;99.90;;;;;;5125852;27;19997;-70
2022/11/26 09:31:01;;;;;;;;;;;6.50;99.90;;;;;;5093021;28;19924;-68
2022/11/26 09:33:28;;;;;;;;;;;6.50;99.90;;;;;;5092125;28;19924;-69
2022/11/26 09:35:53;;;;;;;;;;;6.50;99.90;;;;;;5093170;28;19924;-70
2022/11/26 09:38:19;;;;;;;;;;;6.60;99.90;;;;;;5092882;28;20316;-69
2022/11/26 09:40:50;;;;;;;;;;;6.60;99.90;;;;;;5092334;28;19924;-68
2022/11/26 09:43:27;;;;;;;;;;;6.60;99.90;;;;;;5091636;28;19924;-68
2022/11/26 09:45:54;;;;;;;;;;;6.70;99.90;;;;;;5125671;27;19924;-68
2022/11/26 09:48:21;;;;;;;;;;;6.70;99.90;;;;;;5091161;28;19932;-70
2022/11/26 09:50:48;;;;;;;;;;;6.70;99.90;;;;;;5125808;27;20029;-67
2022/11/26 09:53:17;;;;;;;;;;;6.70;99.90;;;;;;5125166;27;19924;-68
2022/11/26 09:55:44;;;;;;;;;;;6.70;99.90;;;;;;5091603;28;19989;-71
2022/11/26 09:58:19;;;;;;;;;;;6.80;99.90;;;;;;5125786;27;19935;-68
2022/11/26 10:00:46;;;;;;;;;;;6.80;99.90;;;;;;5125494;27;20217;-67
2022/11/26 10:03:19;;;;;;;;;;;6.90;99.90;;;;;;5092396;28;19930;-67
2022/11/26 10:06:03;;;;;;;;;;;6.90;99.90;;;;;;5092510;28;19942;-67
2022/11/26 10:08:48;;;;;;;;;;;6.90;99.90;;;;;;5092152;28;19979;-67
2022/11/26 10:11:16;;;;;;;;;;;7.00;99.90;;;;;;5091998;28;19924;-68
2022/11/26 10:13:45;;;;;;;;;;;7.00;99.90;;;;;;5092120;28;19924;-69
2022/11/26 10:16:19;;;;;;;;;;;7.10;99.90;;;;;;5092322;28;19989;-68
2022/11/26 10:18:50;;;;;;;;;;;7.10;99.90;;;;;;5092424;28;20331;-67
2022/11/26 10:21:24;;;;;;;;;;;7.10;99.90;;;;;;5090978;28;20408;-69
2022/11/26 10:23:50;;;;;;;;;;;7.10;99.90;;;;;;5090960;28;20376;-69
2022/11/26 10:26:19;;;;;;;;;;;7.10;99.90;;;;;;5125025;27;20107;-67
2022/11/26 10:28:49;;;;;;;;;;;7.10;99.90;;;;;;5107740;28;19920;-69
2022/11/26 10:31:25;;;;;;;;;;;7.10;99.90;;;;;;5091932;28;19924;-68
2022/11/26 10:33:56;;;;;;;;;;;7.20;99.90;;;;;;5124547;27;20027;-71
2022/11/26 10:36:23;;;;;;;;;;;7.20;99.90;;;;;;5092187;28;20281;-68
2022/11/26 10:38:49;;;;;;;;;;;7.30;99.90;;;;;;5090971;28;19974;-67
2022/11/26 10:41:14;;;;;;;;;;;7.30;99.90;;;;;;5091839;28;20381;-68
2022/11/26 10:43:40;;;;;;;;;;;7.30;99.90;;;;;;5090756;28;20276;-67
2022/11/26 10:46:05;;;;;;;;;;;7.40;99.90;;;;;;5092094;28;19931;-69
2022/11/26 10:48:32;;;;;;;;;;;7.40;99.90;;;;;;5091312;28;19924;-68
2022/11/26 10:51:03;;;;;;;;;;;7.40;99.90;;;;;;5091715;28;19924;-71
2022/11/26 10:53:31;;;;;;;;;;;7.50;99.90;;;;;;5124485;27;20085;-68
2022/11/26 10:55:58;;;;;;;;;;;7.50;99.90;;;;;;5091556;28;20263;-70
2022/11/26 10:58:30;;;;;;;;;;;7.60;99.90;;;;;;5090352;28;20392;-71
2022/11/26 11:01:01;;;;;;;;;;;7.60;99.90;;;;;;5092000;28;19924;-67
2022/11/26 11:03:29;;;;;;;;;;;7.60;99.90;;;;;;5091631;28;20007;-68
2022/11/26 11:06:11;;;;;;;;;;;7.70;99.90;;;;;;5091017;28;19969;-70
2022/11/26 11:08:37;;;;;;;;;;;7.70;99.90;;;;;;5091642;28;19924;-68
2022/11/26 11:11:03;;;;;;;;;;;7.80;99.90;;;;;;5092213;28;20292;-71
2022/11/26 11:13:45;;;;;;;;;;;7.80;99.90;;;;;;5091618;28;19935;-68
2022/11/26 11:16:11;;;;;;;;;;;7.80;99.90;;;;;;5092181;28;19963;-72
2022/11/26 11:18:46;;;;;;;;;;;7.90;99.90;;;;;;5091769;28;19924;-69
2022/11/26 11:21:14;;;;;;;;;;;7.90;99.90;;;;;;5091212;28;20019;-69
2022/11/26 11:23:40;;;;;;;;;;;7.90;99.90;;;;;;5091530;28;20015;-69
2022/11/26 11:26:15;;;;;;;;;;;7.90;99.90;;;;;;5090662;28;19973;-74
2022/11/26 11:28:45;;;;;;;;;;;8.00;99.90;;;;;;5090650;28;20387;-69
2022/11/26 11:31:21;;;;;;;;;;;8.00;99.90;;;;;;5092092;28;20315;-71
2022/11/26 11:33:48;;;;;;;;;;;8.00;99.90;;;;;;5091616;28;20007;-68
2022/11/26 11:36:13;;;;;;;;;;;8.10;99.90;;;;;;5124725;28;19931;-67
2022/11/26 11:38:53;;;;;;;;;;;8.10;99.90;;;;;;5091926;28;19928;-68
2022/11/26 11:41:27;;;;;;;;;;;8.20;99.90;;;;;;5091858;28;19928;-68
2022/11/26 11:44:02;;;;;;;;;;;8.20;99.90;;;;;;5092068;28;20000;-68
2022/11/26 11:46:41;;;;;;;;;;;8.20;99.90;;;;;;5091855;28;19928;-69
2022/11/26 11:49:20;;;;;;;;;;;8.20;99.90;;;;;;5090364;28;20400;-69
2022/11/26 11:51:59;;;;;;;;;;;8.20;99.90;;;;;;5091590;28;19931;-71
2022/11/26 11:54:45;;;;;;;;;;;8.30;99.90;;;;;;5107809;28;20007;-69
2022/11/26 11:57:22;;;;;;;;;;;8.30;99.90;;;;;;5123587;28;19931;-69
2022/11/26 12:00:09;;;;;;;;;;;8.30;99.90;;;;;;5107380;28;19925;-69
2022/11/26 12:02:44;;;;;;;;;;;8.30;99.90;;;;;;5091409;28;19947;-69
2022/11/26 12:05:12;;;;;;;;;;;8.30;99.90;;;;;;5124618;28;19936;-69
2022/11/26 12:07:40;;;;;;;;;;;8.30;99.90;;;;;;5090764;28;19924;-69
2022/11/26 12:10:13;;;;;;;;;;;8.30;99.90;;;;;;5095161;28;20020;-69
2022/11/26 12:12:43;;;;;;;;;;;8.30;99.90;;;;;;5110186;28;19928;-69
2022/11/26 12:15:12;;;;;;;;;;;8.30;99.90;;;;;;5127862;27;20296;-73
2022/11/26 12:17:54;;;;;;;;;;;8.30;99.90;;;;;;5094648;28;19931;-68
2022/11/26 12:20:25;;;;;;;;;;;8.30;99.90;;;;;;5093918;28;19930;-68
2022/11/26 12:23:10;;;;;;;;;;;8.30;99.90;;;;;;5110289;28;19924;-68
2022/11/26 12:25:36;;;;;;;;;;;8.30;99.90;;;;;;5127353;27;19924;-69
2022/11/26 12:28:11;;;;;;;;;;;8.40;99.90;;;;;;5094662;28;20327;-69
2022/11/26 12:30:50;;;;;;;;;;;8.30;99.90;;;;;;5094555;28;19930;-68
2022/11/26 12:33:19;;;;;;;;;;;8.40;99.90;;;;;;5127481;27;19932;-68
2022/11/26 12:35:55;;;;;;;;;;;8.40;99.90;;;;;;5094086;28;19932;-68
2022/11/26 12:38:23;;;;;;;;;;;8.40;99.90;;;;;;5127789;27;20024;-68
2022/11/26 12:41:04;;;;;;;;;;;8.40;99.90;;;;;;5110013;28;20340;-68
2022/11/26 12:43:48;;;;;;;;;;;8.40;99.90;;;;;;5094620;28;20042;-68
2022/11/26 12:46:18;;;;;;;;;;;8.40;99.90;;;;;;5094385;28;20312;-68
2022/11/26 12:48:50;;;;;;;;;;;8.40;99.90;;;;;;5092573;28;19959;-68
2022/11/26 12:51:15;;;;;;;;;;;8.50;99.90;;;;;;5094056;28;19924;-68
2022/11/26 12:54:03;;;;;;;;;;;8.50;99.90;;;;;;5127104;27;19924;-67
2022/11/26 12:56:31;;;;;;;;;;;8.50;99.90;;;;;;5093182;28;19928;-68
2022/11/26 12:59:09;;;;;;;;;;;8.50;99.90;;;;;;5093866;28;19930;-69
2022/11/26 13:01:35;;;;;;;;;;;8.50;99.90;;;;;;5092831;28;20032;-68
2022/11/26 13:04:01;;;;;;;;;;;8.50;99.90;;;;;;5093683;28;19929;-69
2022/11/26 13:06:33;;;;;;;;;;;8.50;99.90;;;;;;5093882;28;19931;-68
2022/11/26 13:09:18;;;;;;;;;;;8.50;99.90;;;;;;5092274;28;19981;-71
2022/11/26 13:11:43;;;;;;;;;;;8.50;99.90;;;;;;5092222;28;19924;-68
2022/11/26 13:14:15;;;;;;;;;;;8.50;99.90;;;;;;5092612;28;19969;-68
2022/11/26 13:16:47;;;;;;;;;;;8.50;99.90;;;;;;5093623;28;20019;-67
2022/11/26 13:19:33;;;;;;;;;;;8.50;99.90;;;;;;5093105;28;19923;-71
2022/11/26 13:22:31;;;;;;;;;;;8.50;99.90;;;;;;5125766;27;20304;-68
2022/11/26 13:25:15;;;;;;;;;;;8.50;99.90;;;;;;5125984;27;20382;-68
2022/11/26 13:27:41;;;;;;;;;;;8.50;99.90;;;;;;5093310;28;19946;-71
2022/11/26 13:30:33;;;;;;;;;;;8.50;99.90;;;;;;5093278;28;20423;-68
2022/11/26 13:33:05;;;;;;;;;;;8.50;99.90;;;;;;5090588;28;19958;-73
2022/11/26 13:35:48;;;;;;;;;;;8.50;99.90;;;;;;5092298;28;20151;-67
2022/11/26 13:38:13;;;;;;;;;;;8.50;99.90;;;;;;5093075;28;19924;-68
2022/11/26 13:40:39;;;;;;;;;;;8.50;99.90;;;;;;5092968;28;19924;-67
2022/11/26 13:43:23;;;;;;;;;;;8.50;99.90;;;;;;5091986;28;19947;-65
2022/11/26 13:45:58;;;;;;;;;;;8.50;99.90;;;;;;5092377;28;20022;-66
2022/11/26 13:48:23;;;;;;;;;;;8.60;99.90;;;;;;5091518;28;19931;-65
2022/11/26 13:50:52;;;;;;;;;;;8.50;99.90;;;;;;5092389;28;19920;-68
2022/11/26 13:53:28;;;;;;;;;;;8.50;99.90;;;;;;5125653;27;20322;-66
2022/11/26 13:56:01;;;;;;;;;;;8.50;99.90;;;;;;5092783;28;19924;-65
2022/11/26 13:58:33;;;;;;;;;;;8.40;99.90;;;;;;5074879;28;19932;-66
2022/11/26 14:01:18;;;;;;;;;;;8.40;99.90;;;;;;5092623;28;19975;-66
2022/11/26 14:03:45;;;;;;;;;;;8.40;99.90;;;;;;5091847;28;19930;-66
2022/11/26 14:06:11;;;;;;;;;;;8.40;99.90;;;;;;5092932;28;19920;-66
2022/11/26 14:08:42;;;;;;;;;;;8.40;99.90;;;;;;5092783;28;19946;-66
2022/11/26 14:11:09;;;;;;;;;;;8.40;99.90;;;;;;5092248;28;20015;-66
2022/11/26 14:13:34;;;;;;;;;;;8.40;99.90;;;;;;5091410;28;19981;-70
2022/11/26 14:16:04;;;;;;;;;;;8.30;99.90;;;;;;5091299;28;19924;-66
2022/11/26 14:18:48;;;;;;;;;;;8.30;99.90;;;;;;5092342;28;19928;-67
2022/11/26 14:21:14;;;;;;;;;;;8.30;99.90;;;;;;5091562;28;19934;-66
2022/11/26 14:23:40;;;;;;;;;;;8.30;99.90;;;;;;5091385;28;20392;-66
2022/11/26 14:26:09;;;;;;;;;;;8.30;99.90;;;;;;5091923;28;19924;-65
2022/11/26 14:28:35;;;;;;;;;;;8.30;99.90;;;;;;5092216;28;19948;-67
2022/11/26 14:31:30;;;;;;;;;;;8.20;99.90;;;;;;5091063;28;19931;-65
2022/11/26 14:33:57;;;;;;;;;;;8.20;99.90;;;;;;5111749;27;19930;-65
2022/11/26 14:36:27;;;;;;;;;;;8.20;99.90;;;;;;5125414;27;19924;-65
2022/11/26 14:39:25;;;;;;;;;;;8.30;99.90;;;;;;5092249;28;19927;-65
2022/11/26 14:41:52;;;;;;;;;;;8.20;99.90;;;;;;5068303;28;20005;-74